Time;durP1;ratioP1;P1;durP2;ratioP2;P2;SDS_P1;SDS_P2;PMS_P1;PMS_P2;Temp;Humidity;BMP_temperature;BMP_pressure;BME280_temperature;BME280_humidity;BME280_pressure;Samples;Min_cycle;Max_cycle;Signal;HPM_P1;HPM_P2
2022/10/10 00:01:56;;;;;;;11.95;3.15;;;;;;;9.79;71.22;101464.13;5002939;28;20084;-83
2022/10/10 00:04:27;;;;;;;6.38;2.55;;;;;;;9.75;72.03;101452.88;5012115;28;20488;-80
2022/10/10 00:06:55;;;;;;;7.82;2.50;;;;;;;9.72;72.21;101450.38;4975697;28;20501;-82
2022/10/10 00:09:24;;;;;;;10.10;3.00;;;;;;;9.72;71.95;101457.41;4995636;28;20131;-81
2022/10/10 00:11:59;;;;;;;9.35;3.47;;;;;;;9.71;72.35;101453.91;5011928;28;20084;-81
2022/10/10 00:14:28;;;;;;;19.75;3.80;;;;;;;9.69;71.95;101449.66;4996916;28;20401;-82
2022/10/10 00:17:00;;;;;;;9.68;2.83;;;;;;;9.63;72.71;101446.34;4989891;28;20092;-81
2022/10/10 00:19:32;;;;;;;9.35;2.97;;;;;;;9.59;72.63;101449.16;4995863;28;20490;-82
2022/10/10 00:22:14;;;;;;;7.78;2.85;;;;;;;9.56;72.55;101447.53;4976048;28;20072;-80
2022/10/10 00:24:43;;;;;;;10.27;2.65;;;;;;;9.57;72.22;101445.75;4984758;28;20041;-81
2022/10/10 00:27:13;;;;;;;7.88;2.90;;;;;;;9.54;73.07;101448.50;4994587;28;20523;-81
2022/10/10 00:29:41;;;;;;;8.30;2.72;;;;;;;9.54;72.53;101443.25;4978185;28;20046;-83
2022/10/10 00:32:09;;;;;;;5.80;2.58;;;;;;;9.49;72.64;101440.81;5005778;28;20092;-81
2022/10/10 00:34:40;;;;;;;7.32;2.47;;;;;;;9.46;72.74;101435.69;4983779;28;20049;-82
2022/10/10 00:37:17;;;;;;;9.05;3.42;;;;;;;9.42;72.91;101435.91;4997635;28;20037;-80
2022/10/10 00:39:58;;;;;;;;;;;;;;;9.35;72.92;101435.28;4989134;28;20134;-81
2022/10/10 00:42:27;;;;;;;8.27;2.90;;;;;;;9.34;73.97;101423.06;4982078;28;19952;-81
2022/10/10 00:45:27;;;;;;;8.85;2.50;;;;;;;9.29;73.79;101419.78;4998217;28;20050;-82
2022/10/10 00:48:03;;;;;;;9.98;3.83;;;;;;;9.26;72.37;101412.00;4992439;28;20468;-81
2022/10/10 00:50:34;;;;;;;10.63;2.85;;;;;;;9.22;73.39;101416.53;5004358;28;20049;-81
2022/10/10 00:53:16;;;;;;;8.80;2.30;;;;;;;9.23;73.78;101420.00;5011773;28;20053;-80
2022/10/10 00:55:44;;;;;;;7.47;3.20;;;;;;;9.22;74.40;101407.78;4993579;28;20124;-82
2022/10/10 00:58:19;;;;;;;9.63;2.70;;;;;;;9.21;73.70;101406.09;4988099;28;20464;-83
2022/10/10 01:00:48;;;;;;;8.70;3.00;;;;;;;9.20;73.70;101409.63;5015457;28;20071;-81
2022/10/10 01:03:23;;;;;;;7.53;2.75;;;;;;;9.17;73.65;101407.97;4997494;28;20041;-81
2022/10/10 01:05:53;;;;;;;7.07;2.35;;;;;;;9.17;73.64;101407.97;4963038;28;20533;-82
2022/10/10 01:08:24;;;;;;;7.82;3.15;;;;;;;9.13;73.14;101403.75;4992702;28;20048;-83
2022/10/10 01:11:28;;;;;;;6.13;2.70;;;;;;;9.09;73.33;101407.41;4986593;28;20088;-80
2022/10/10 01:14:15;;;;;;;7.47;2.95;;;;;;;9.09;73.56;101402.16;4985036;28;20049;-82
2022/10/10 01:17:18;;;;;;;6.77;2.53;;;;;;;9.08;73.69;101395.22;4979126;28;20073;-83
2022/10/10 01:19:48;;;;;;;8.75;3.20;;;;;;;9.08;74.78;101395.22;4947745;28;20078;-84
2022/10/10 01:22:41;;;;;;;10.15;2.88;;;;;;;9.04;74.21;101389.22;5005642;28;20060;-81
2022/10/10 01:25:30;;;;;;;5.85;2.80;;;;;;;9.04;74.36;101393.63;4997695;28;20053;-82
2022/10/10 01:28:16;;;;;;;8.32;3.25;;;;;;;9.02;73.46;101382.34;4995653;28;20049;-82
2022/10/10 01:30:46;;;;;;;9.27;3.35;;;;;;;8.99;73.89;101375.44;4990440;28;20050;-83
2022/10/10 01:33:27;;;;;;;6.20;2.95;;;;;;;8.97;73.76;101374.66;4975845;28;20089;-83
2022/10/10 01:36:24;;;;;;;8.70;2.92;;;;;;;8.97;73.60;101376.44;4980712;28;20200;-82
2022/10/10 01:39:04;;;;;;;9.73;2.90;;;;;;;8.96;74.30;101369.44;5002733;28;20054;-81
2022/10/10 01:41:42;;;;;;;10.88;3.05;;;;;;;8.94;73.75;101369.50;5011436;28;20058;-81
2022/10/10 01:44:14;;;;;;;7.50;3.15;;;;;;;8.93;74.44;101354.69;4993320;28;20101;-81
2022/10/10 01:46:42;;;;;;;8.43;2.80;;;;;;;8.92;74.72;101358.22;4979426;28;20042;-83
2022/10/10 01:49:14;;;;;;;7.80;3.65;;;;;;;8.89;73.98;101355.72;4960665;28;20507;-84
2022/10/10 01:52:04;;;;;;;6.63;2.85;;;;;;;8.87;74.31;101355.78;4993860;28;20048;-82
2022/10/10 01:54:38;;;;;;;9.80;2.92;;;;;;;8.84;74.28;101353.28;4960332;28;20118;-82
2022/10/10 01:57:20;;;;;;;5.53;2.63;;;;;;;8.84;75.20;101358.53;4989215;28;20078;-82
2022/10/10 02:00:02;;;;;;;4.53;2.60;;;;;;;8.81;74.77;101353.38;4996629;28;20089;-81
2022/10/10 02:02:51;;;;;;;7.97;3.10;;;;;;;8.78;75.20;101345.66;4981605;28;20057;-82
2022/10/10 02:05:32;;;;;;;8.23;3.17;;;;;;;8.79;75.07;101343.88;5008201;28;20605;-82
2022/10/10 02:08:07;;;;;;;12.13;3.20;;;;;;;8.74;75.03;101337.97;4985023;28;20054;-82
2022/10/10 02:10:42;;;;;;;9.20;2.80;;;;;;;8.74;74.98;101341.44;4995777;28;20086;-82
2022/10/10 02:13:12;;;;;;;9.60;3.05;;;;;;;8.73;75.45;101339.72;4968960;28;20212;-83
2022/10/10 02:15:50;;;;;;;8.40;2.50;;;;;;;8.72;75.50;101337.16;4976033;28;20138;-83
2022/10/10 02:18:26;;;;;;;7.78;2.70;;;;;;;8.69;75.84;101334.63;4978537;28;20371;-84
2022/10/10 02:21:03;;;;;;;7.10;2.58;;;;;;;8.66;76.42;101324.28;4964682;28;20279;-82
2022/10/10 02:23:34;;;;;;;7.72;2.70;;;;;;;8.61;76.01;101324.47;4990229;28;20046;-83
2022/10/10 02:26:05;;;;;;;6.32;2.28;;;;;;;8.60;76.52;101325.34;4980053;28;20061;-82
2022/10/10 02:28:46;;;;;;;7.93;2.17;;;;;;;8.58;77.42;101322.81;4968912;28;20056;-84
2022/10/10 02:31:24;;;;;;;8.02;3.28;;;;;;;8.56;77.90;101311.53;5010708;28;20096;-84
2022/10/10 02:34:10;;;;;;;5.97;3.03;;;;;;;8.55;77.88;101307.16;4970623;28;20058;-81
2022/10/10 02:36:39;;;;;;;7.15;2.90;;;;;;;8.54;77.33;101307.25;5001499;28;20053;-85
2022/10/10 02:39:13;;;;;;;6.75;2.88;;;;;;;8.53;77.29;101310.78;4951201;28;20118;-82
2022/10/10 02:41:44;;;;;;;5.85;3.08;;;;;;;8.51;77.63;101302.09;4989639;28;20029;-81
2022/10/10 02:44:18;;;;;;;7.38;2.75;;;;;;;8.50;77.33;101303.03;5015140;28;20124;-81
2022/10/10 02:46:51;;;;;;;7.38;2.97;;;;;;;8.48;78.55;101305.72;4966438;28;20057;-82
2022/10/10 02:49:29;;;;;;;5.97;3.22;;;;;;;8.46;78.17;101302.28;4993752;28;20133;-82
2022/10/10 02:52:01;;;;;;;8.05;2.97;;;;;;;8.46;77.92;101294.41;4963006;28;20100;-82
2022/10/10 02:54:29;;;;;;;9.15;2.83;;;;;;;8.43;79.46;101293.69;4975407;28;20046;-79
2022/10/10 02:56:56;;;;;;;10.73;3.00;;;;;;;8.38;78.76;101283.38;4975771;28;20045;-83
2022/10/10 02:59:26;;;;;;;8.82;2.78;;;;;;;8.36;78.89;101282.53;4970766;28;20049;-84
2022/10/10 03:01:53;;;;;;;6.72;2.63;;;;;;;8.34;79.04;101282.63;4990953;28;20049;-82
2022/10/10 03:04:22;;;;;;;6.43;2.35;;;;;;;8.33;77.64;101283.53;5009674;28;20061;-82
2022/10/10 03:06:54;;;;;;;7.55;2.95;;;;;;;8.34;78.48;101274.75;4974806;28;20052;-81
2022/10/10 03:09:21;;;;;;;6.55;3.05;;;;;;;8.33;77.96;101269.53;4988721;28;20046;-82
2022/10/10 03:11:51;;;;;;;8.13;2.75;;;;;;;8.34;77.42;101272.13;5011820;28;20048;-83
2022/10/10 03:14:19;;;;;;;7.63;3.42;;;;;;;8.35;78.65;101263.31;5018518;28;20128;-82
2022/10/10 03:16:47;;;;;;;5.75;2.30;;;;;;;8.32;78.19;101259.97;4975261;28;20111;-81
2022/10/10 03:19:16;;;;;;;7.50;3.55;;;;;;;8.23;78.07;101258.56;4996357;28;20109;-81
2022/10/10 03:21:44;;;;;;;7.65;2.88;;;;;;;8.22;79.13;101253.38;4977772;28;20057;-81
2022/10/10 03:24:14;;;;;;;5.57;2.60;;;;;;;8.25;78.78;101255.91;4975539;28;20046;-83
2022/10/10 03:26:43;;;;;;;7.63;2.78;;;;;;;8.25;77.70;101238.38;5015450;28;20080;-82
2022/10/10 03:29:14;;;;;;;6.07;2.63;;;;;;;8.24;77.86;101244.56;4996996;28;20076;-81
2022/10/10 03:31:50;;;;;;;8.07;2.70;;;;;;;8.19;78.73;101245.63;4986580;28;20054;-82
2022/10/10 03:34:19;;;;;;;8.18;2.72;;;;;;;8.16;77.52;101249.22;4988917;28;20134;-80
2022/10/10 03:36:57;;;;;;;6.93;2.95;;;;;;;8.20;77.65;101244.72;4986000;28;20046;-80
2022/10/10 03:39:30;;;;;;;7.93;2.75;;;;;;;8.20;78.95;101242.09;4989238;28;20152;-81
2022/10/10 03:42:02;;;;;;;8.27;3.72;;;;;;;8.18;78.21;101234.28;4992257;28;20141;-81
2022/10/10 03:44:36;;;;;;;6.57;2.70;;;;;;;8.15;78.57;101231.78;4972468;28;20049;-83
2022/10/10 03:47:05;;;;;;;7.90;2.53;;;;;;;8.15;77.67;101228.28;5000067;28;20057;-82
2022/10/10 03:49:33;;;;;;;10.00;3.88;;;;;;;8.11;77.86;101233.69;4984732;28;20492;-81
2022/10/10 03:52:02;;;;;;;6.20;3.03;;;;;;;8.10;78.53;101231.97;4964076;28;20050;-81
2022/10/10 03:54:31;;;;;;;6.15;2.75;;;;;;;8.08;78.10;101228.53;4990490;28;20077;-84
2022/10/10 03:57:17;;;;;;;4.53;2.58;;;;;;;8.06;78.38;101219.91;5001076;28;20555;-81
2022/10/10 03:59:46;;;;;;;11.60;3.70;;;;;;;8.06;78.44;101217.28;4992709;28;20041;-82
2022/10/10 04:02:19;;;;;;;6.15;3.00;;;;;;;8.06;79.35;101213.78;4995917;28;20051;-84
2022/10/10 04:04:52;;;;;;;5.28;2.80;;;;;;;7.97;78.94;101209.75;4960367;28;20052;-82
2022/10/10 04:07:24;;;;;;;7.38;2.72;;;;;;;7.97;79.47;101204.53;4982399;28;20129;-84
2022/10/10 04:09:57;;;;;;;7.13;3.55;;;;;;;7.98;79.50;101206.22;4986014;28;20056;-83
2022/10/10 04:12:28;;;;;;;10.52;3.60;;;;;;;7.98;78.97;101205.38;4990435;28;20049;-83
2022/10/10 04:14:56;;;;;;;7.60;3.45;;;;;;;7.96;77.89;101194.94;5006340;28;20133;-82
2022/10/10 04:17:37;;;;;;;7.15;2.95;;;;;;;7.95;77.66;101185.34;5004588;28;20070;-83
2022/10/10 04:20:05;;;;;;;8.35;3.20;;;;;;;7.95;78.01;101181.88;4972432;28;20145;-82
2022/10/10 04:22:41;;;;;;;8.52;3.20;;;;;;;7.94;77.59;101183.66;4976934;28;20053;-82
2022/10/10 04:25:10;;;;;;;5.03;2.90;;;;;;;7.94;77.39;101177.56;4985728;28;20137;-82
2022/10/10 04:27:40;;;;;;;8.55;3.25;;;;;;;7.93;78.33;101170.63;4957641;28;20626;-80
2022/10/10 04:30:10;;;;;;;6.63;2.80;;;;;;;7.91;77.95;101169.81;4984597;28;20054;-83
2022/10/10 04:33:02;;;;;;;5.25;2.92;;;;;;;7.84;77.85;101166.59;4969785;28;20754;-82
2022/10/10 04:35:34;;;;;;;8.88;3.22;;;;;;;7.80;77.98;101163.22;4982157;28;20074;-80
2022/10/10 04:38:06;;;;;;;6.97;3.15;;;;;;;7.83;78.75;101165.75;4983713;28;20064;-84
2022/10/10 04:40:40;;;;;;;12.30;3.58;;;;;;;7.82;79.03;101153.53;4973612;28;20149;-86
2022/10/10 04:43:08;;;;;;;9.65;3.22;;;;;;;7.85;78.80;101147.31;4975045;28;20104;-83
2022/10/10 04:45:40;;;;;;;9.43;3.30;;;;;;;7.85;78.07;101153.41;4992713;28;20459;-83
2022/10/10 04:48:13;;;;;;;7.55;3.28;;;;;;;7.84;78.92;101150.88;4952983;28;20141;-84
2022/10/10 04:51:11;;;;;;;6.75;3.55;;;;;;;7.84;78.39;101143.00;4961315;28;20530;-80
2022/10/10 04:53:39;;;;;;;8.40;3.92;;;;;;;7.79;78.62;101137.06;4970915;28;20137;-80
2022/10/10 04:56:07;;;;;;;8.63;2.90;;;;;;;7.78;79.29;101135.34;4989760;28;22426;-81
2022/10/10 04:58:38;;;;;;;5.80;2.92;;;;;;;7.78;78.91;101130.97;4959705;28;20058;-83
2022/10/10 05:01:06;;;;;;;9.85;3.00;;;;;;;7.78;79.37;101135.34;4972789;28;20050;-84
2022/10/10 05:03:44;;;;;;;6.18;2.90;;;;;;;7.75;79.57;101130.25;4980685;28;20192;-83
2022/10/10 05:06:16;;;;;;;5.55;2.65;;;;;;;7.73;79.45;101119.81;4981545;28;20053;-82
2022/10/10 05:08:46;;;;;;;7.28;2.75;;;;;;;7.73;80.03;101121.59;4973411;28;20141;-81
2022/10/10 05:11:17;;;;;;;8.10;3.22;;;;;;;7.70;79.70;101116.44;4975576;28;20053;-81
2022/10/10 05:13:49;;;;;;;8.05;3.03;;;;;;;7.72;79.69;101115.50;5006260;28;20060;-82
2022/10/10 05:16:19;;;;;;;5.97;2.83;;;;;;;7.72;80.24;101102.38;4995061;28;20128;-81
2022/10/10 05:18:57;;;;;;;9.32;3.90;;;;;;;7.69;80.25;101094.63;4996438;28;20441;-87
2022/10/10 05:21:28;;;;;;;7.57;3.00;;;;;;;7.66;79.31;101088.69;5001105;28;20057;-83
2022/10/10 05:24:09;;;;;;;7.82;2.83;;;;;;;7.68;79.64;101084.22;4997293;28;20474;-84
2022/10/10 05:26:37;;;;;;;11.93;3.50;;;;;;;7.68;79.61;101077.22;5014458;28;20054;-80
2022/10/10 05:29:15;;;;;;;8.68;3.20;;;;;;;7.68;80.45;101079.84;5002787;28;20038;-81
2022/10/10 05:31:45;;;;;;;9.15;2.85;;;;;;;7.66;78.80;101084.28;4982716;28;20061;-80
2022/10/10 05:34:15;;;;;;;6.93;2.90;;;;;;;7.65;79.33;101077.31;4980323;28;20049;-85
2022/10/10 05:36:44;;;;;;;10.25;3.50;;;;;;;7.65;79.66;101079.94;4989285;28;20054;-82
2022/10/10 05:39:16;;;;;;;8.63;2.97;;;;;;;7.66;79.96;101075.59;4996949;28;20046;-82
2022/10/10 05:41:46;;;;;;;11.82;3.20;;;;;;;7.65;80.67;101073.84;5003605;28;20046;-83
2022/10/10 05:44:16;;;;;;;10.88;3.17;;;;;;;7.65;79.81;101071.22;5008050;28;20046;-79
2022/10/10 05:46:44;;;;;;;5.20;2.97;;;;;;;7.66;80.50;101071.19;4995504;28;20060;-80
2022/10/10 05:49:14;;;;;;;7.30;3.40;;;;;;;7.69;80.39;101067.56;4981555;28;20052;-80
2022/10/10 05:51:42;;;;;;;7.75;3.38;;;;;;;7.70;80.94;101069.28;5005208;28;20048;-83
2022/10/10 05:54:10;;;;;;;11.43;4.10;;;;;;;7.70;80.79;101064.03;4996294;28;20044;-83
2022/10/10 05:56:41;;;;;;;6.90;3.40;;;;;;;7.70;80.29;101064.03;5004243;28;20057;-81
2022/10/10 05:59:13;;;;;;;10.23;2.88;;;;;;;7.72;81.51;101065.69;4973932;28;20042;-82
2022/10/10 06:01:44;;;;;;;9.50;2.88;;;;;;;7.73;80.87;101066.53;4981295;28;20042;-81
2022/10/10 06:04:18;;;;;;;10.47;3.53;;;;;;;7.73;81.18;101058.69;5007543;28;20138;-83
2022/10/10 06:06:55;;;;;;;7.95;3.08;;;;;;;7.72;80.73;101057.84;4980971;28;20655;-85
2022/10/10 06:09:25;;;;;;;12.43;3.25;;;;;;;7.74;81.74;101063.00;4992728;28;20507;-83
2022/10/10 06:11:55;;;;;;;9.40;3.60;;;;;;;7.70;80.68;101056.19;4980342;28;20528;-78
2022/10/10 06:14:24;;;;;;;5.53;2.90;;;;;;;7.72;81.01;101062.22;4994258;28;20116;-83
2022/10/10 06:16:52;;;;;;;9.70;3.45;;;;;;;7.72;81.42;101060.44;4991278;28;20418;-80
2022/10/10 06:19:25;;;;;;;8.18;3.63;;;;;;;7.71;82.24;101061.38;4977277;28;20057;-81
2022/10/10 06:21:53;;;;;;;10.38;3.90;;;;;;;7.71;81.39;101057.91;4981302;28;20559;-80
2022/10/10 06:24:23;;;;;;;10.60;3.55;;;;;;;7.68;81.94;101056.25;4991434;28;20048;-79
2022/10/10 06:26:50;;;;;;;9.05;3.47;;;;;;;7.72;82.45;101060.44;4987615;28;20444;-81
2022/10/10 06:29:19;;;;;;;9.40;3.38;;;;;;;7.74;82.18;101061.22;4983571;28;20144;-82
2022/10/10 06:31:46;;;;;;;7.78;4.03;;;;;;;7.76;82.42;101058.56;4989508;28;20041;-81
2022/10/10 06:34:14;;;;;;;9.63;3.50;;;;;;;7.74;82.06;101069.09;5004655;28;20048;-81
2022/10/10 06:36:44;;;;;;;11.07;3.33;;;;;;;7.74;82.37;101063.00;4961845;28;20064;-84
2022/10/10 06:39:19;;;;;;;11.48;3.47;;;;;;;7.74;81.89;101070.88;5012053;28;20643;-80
2022/10/10 06:41:49;;;;;;;8.10;3.03;;;;;;;7.73;81.97;101070.00;4975559;28;20065;-80
2022/10/10 06:44:18;;;;;;;7.30;3.28;;;;;;;7.73;82.22;101072.63;5003234;28;20052;-79
2022/10/10 06:46:50;;;;;;;10.02;3.30;;;;;;;7.74;81.89;101069.09;5009708;28;20128;-80
2022/10/10 06:49:21;;;;;;;8.20;2.90;;;;;;;7.76;82.33;101074.28;4995784;28;20050;-80
2022/10/10 06:51:50;;;;;;;7.55;2.88;;;;;;;7.82;81.56;101067.03;5019876;28;20053;-81
2022/10/10 06:54:21;;;;;;;6.47;3.10;;;;;;;7.83;82.19;101062.63;4993740;28;20045;-81
2022/10/10 06:56:53;;;;;;;11.20;3.50;;;;;;;7.86;82.36;101060.75;4971742;28;20073;-80
2022/10/10 06:59:24;;;;;;;10.30;3.60;;;;;;;7.90;82.66;101058.84;4962045;28;20045;-82
2022/10/10 07:01:55;;;;;;;13.88;4.25;;;;;;;7.93;81.10;101060.50;4991271;28;20108;-81
2022/10/10 07:04:27;;;;;;;11.25;4.15;;;;;;;7.94;82.52;101057.81;4972091;28;20050;-84
2022/10/10 07:07:00;;;;;;;8.68;3.00;;;;;;;7.92;81.38;101057.00;4994870;28;20110;-80
2022/10/10 07:09:30;;;;;;;9.95;3.47;;;;;;;7.95;81.57;101056.91;4979272;28;20137;-79
2022/10/10 07:12:01;;;;;;;6.45;3.30;;;;;;;7.97;81.22;101062.94;5005429;28;20042;-82
2022/10/10 07:14:29;;;;;;;11.98;3.58;;;;;;;8.00;82.56;101057.56;4976436;28;20049;-80
2022/10/10 07:17:04;;;;;;;9.43;3.30;;;;;;;8.05;81.44;101052.13;4974007;28;20076;-82
2022/10/10 07:19:43;;;;;;;9.75;3.55;;;;;;;8.10;81.52;101045.78;4995288;28;20180;-80
2022/10/10 07:22:13;;;;;;;8.63;3.65;;;;;;;8.17;81.71;101045.53;5013942;28;20056;-80
2022/10/10 07:24:44;;;;;;;11.63;4.25;;;;;;;8.24;81.91;101049.56;4978907;28;20050;-81
2022/10/10 07:27:12;;;;;;;10.05;3.15;;;;;;;8.25;81.82;101046.91;4997366;28;20117;-81
2022/10/10 07:29:44;;;;;;;8.43;3.20;;;;;;;8.23;81.60;101043.47;5000532;28;20053;-82
2022/10/10 07:32:14;;;;;;;9.77;4.00;;;;;;;8.26;81.86;101045.13;5010187;28;20057;-82
2022/10/10 07:34:49;;;;;;;9.07;3.67;;;;;;;8.32;82.13;101037.00;4997246;28;20558;-82
2022/10/10 07:37:18;;;;;;;9.52;3.20;;;;;;;8.35;80.86;101042.13;4992685;28;20041;-83
2022/10/10 07:39:46;;;;;;;10.38;3.85;;;;;;;8.35;81.43;101052.59;4997557;28;20141;-81
2022/10/10 07:42:13;;;;;;;9.85;3.58;;;;;;;8.39;80.90;101046.34;4994090;28;20061;-82
2022/10/10 07:44:42;;;;;;;10.48;3.38;;;;;;;8.43;80.77;101042.69;4979234;28;20141;-82
2022/10/10 07:47:10;;;;;;;6.38;3.15;;;;;;;8.44;81.50;101043.53;4985125;28;20040;-80
2022/10/10 07:49:37;;;;;;;6.88;3.30;;;;;;;8.49;82.12;101044.16;4971684;28;20049;-82
2022/10/10 07:52:05;;;;;;;12.45;4.05;;;;;;;8.53;81.97;101032.63;4979141;28;20045;-83
2022/10/10 07:54:32;;;;;;;8.15;2.67;;;;;;;8.56;81.76;101041.22;4990412;28;20132;-81
2022/10/10 07:57:00;;;;;;;10.30;3.70;;;;;;;8.65;81.43;101039.13;4974306;28;20048;-83
2022/10/10 07:59:27;;;;;;;7.15;3.15;;;;;;;8.72;81.09;101048.41;4980473;28;20493;-80
2022/10/10 08:01:54;;;;;;;9.23;3.65;;;;;;;8.75;81.28;101040.41;5000811;28;20056;-83
2022/10/10 08:04:24;;;;;;;7.65;3.67;;;;;;;8.80;79.97;101046.31;4979361;28;20046;-79
2022/10/10 08:06:52;;;;;;;9.10;3.60;;;;;;;8.84;80.71;101045.25;5009518;28;20054;-80
2022/10/10 08:09:20;;;;;;;9.32;3.88;;;;;;;8.91;80.24;101038.78;4992145;28;20049;-80
2022/10/10 08:11:52;;;;;;;11.88;3.88;;;;;;;8.96;80.40;101030.69;4971624;28;20053;-81
2022/10/10 08:14:21;;;;;;;10.80;3.58;;;;;;;9.02;80.39;101033.06;4971648;28;20054;-81
2022/10/10 08:16:48;;;;;;;12.13;4.70;;;;;;;9.04;80.09;101026.78;4989507;28;20041;-82
2022/10/10 08:19:15;;;;;;;13.10;4.95;;;;;;;9.08;80.10;101027.50;4996437;28;20425;-82
2022/10/10 08:21:43;;;;;;;5.75;2.88;;;;;;;9.18;79.52;101017.41;4975088;28;20137;-81
2022/10/10 08:24:10;;;;;;;9.13;3.78;;;;;;;9.29;79.02;101018.63;4976446;28;20225;-80
2022/10/10 08:26:39;;;;;;;11.00;3.75;;;;;;;9.35;78.98;101017.47;4977170;28;20034;-81
2022/10/10 08:29:10;;;;;;;8.52;3.13;;;;;;;9.43;78.05;101017.13;4986991;28;20699;-81
2022/10/10 08:31:40;;;;;;;11.15;3.25;;;;;;;9.52;77.66;101020.16;4967358;28;20038;-81
2022/10/10 08:34:11;;;;;;;11.68;5.07;;;;;;;9.62;77.81;101021.41;4973929;28;20050;-81
2022/10/10 08:36:39;;;;;;;10.60;2.80;;;;;;;9.72;76.92;101013.06;5007437;28;20514;-81
2022/10/10 08:39:06;;;;;;;9.75;3.65;;;;;;;9.84;76.44;101015.09;5006497;28;20061;-81
2022/10/10 08:41:39;;;;;;;10.95;2.88;;;;;;;9.90;75.38;101004.28;4992237;28;20057;-82
2022/10/10 08:44:34;;;;;;;7.40;3.20;;;;;;;9.98;75.72;101014.41;5001071;28;20052;-79
2022/10/10 08:47:20;;;;;;;6.88;2.70;;;;;;;10.12;75.00;101023.31;4976038;28;20068;-81
2022/10/10 08:50:12;;;;;;;6.07;2.83;;;;;;;10.21;74.08;101022.00;4983860;28;20058;-80
2022/10/10 08:52:49;;;;;;;7.57;3.28;;;;;;;10.33;73.33;101015.28;4999959;28;20466;-81
2022/10/10 08:55:25;;;;;;;6.30;2.60;;;;;;;10.32;73.17;101009.19;4959110;28;20069;-81
2022/10/10 08:57:57;;;;;;;5.65;2.95;;;;;;;10.40;73.06;101016.66;4998625;28;20393;-82
2022/10/10 09:00:29;;;;;;;7.10;3.22;;;;;;;10.48;72.90;101003.09;4983753;28;20069;-81
2022/10/10 09:02:59;;;;;;;6.32;2.75;;;;;;;10.54;72.45;101008.91;4989154;28;20069;-80
2022/10/10 09:05:39;;;;;;;7.57;3.33;;;;;;;10.63;72.66;100994.41;4970822;28;20045;-80
2022/10/10 09:08:22;;;;;;;7.93;2.67;;;;;;;10.74;72.64;101004.38;4996407;28;20053;-83
2022/10/10 09:10:56;;;;;;;;;;;;;;;10.83;71.83;100993.34;5002014;28;20057;-81
2022/10/10 09:13:36;;;;;;;8.20;3.28;;;;;;;10.92;71.17;100986.72;4988014;28;20015;-81
2022/10/10 09:16:30;;;;;;;11.05;3.15;;;;;;;10.99;71.28;100991.59;4983269;28;20042;-79
2022/10/10 09:19:23;;;;;;;9.27;2.63;;;;;;;11.08;71.12;100985.81;4996098;28;20453;-81
2022/10/10 09:21:55;;;;;;;7.65;2.85;;;;;;;11.19;71.36;100979.06;4998550;28;20061;-80
2022/10/10 09:24:27;;;;;;;7.40;2.95;;;;;;;11.35;71.38;100975.50;4987643;28;20052;-81
2022/10/10 09:27:05;;;;;;;7.13;2.83;;;;;;;11.47;70.49;100981.84;4997427;28;20065;-81
2022/10/10 09:30:05;;;;;;;7.07;2.72;;;;;;;11.64;69.51;100976.47;4980869;28;20413;-81
2022/10/10 09:32:38;;;;;;;7.43;3.13;;;;;;;11.76;69.19;100974.91;5007897;28;20049;-80
2022/10/10 09:35:23;;;;;;;6.95;2.50;;;;;;;11.89;68.46;100977.72;4998808;28;20527;-80
2022/10/10 09:38:00;;;;;;;8.93;2.77;;;;;;;11.97;68.22;100977.25;5002246;28;20053;-79
2022/10/10 09:40:35;;;;;;;5.18;2.70;;;;;;;12.03;68.94;100967.19;5010452;28;20488;-80
2022/10/10 09:43:19;;;;;;;8.73;2.60;;;;;;;12.12;68.11;100960.53;4961036;28;20050;-82
2022/10/10 09:45:57;;;;;;;5.28;2.50;;;;;;;12.19;67.67;100967.13;4974349;28;20480;-81
2022/10/10 09:48:31;;;;;;;8.07;2.97;;;;;;;12.30;67.80;100959.41;4999391;28;20493;-79
2022/10/10 09:51:02;;;;;;;8.60;2.50;;;;;;;12.38;67.23;100969.47;5001301;28;20532;-81
2022/10/10 09:53:30;;;;;;;7.45;2.78;;;;;;;12.51;67.40;100964.31;4987460;28;20069;-80
2022/10/10 09:55:58;;;;;;;10.20;3.53;;;;;;;12.58;66.44;100949.78;4981767;28;20481;-82
2022/10/10 09:58:40;;;;;;;6.95;2.72;;;;;;;12.74;66.80;100954.94;5016992;28;20041;-80
2022/10/10 10:01:12;;;;;;;4.20;2.53;;;;;;;12.96;65.85;100944.72;4997095;28;20044;-79
2022/10/10 10:03:42;;;;;;;8.82;3.03;;;;;;;13.03;65.54;100937.28;5003268;28;20145;-79
2022/10/10 10:06:12;;;;;;;8.82;2.67;;;;;;;13.10;65.51;100934.16;5009346;28;20046;-80
2022/10/10 10:08:41;;;;;;;7.00;2.72;;;;;;;13.19;65.43;100951.19;4996730;28;20521;-81
2022/10/10 10:11:31;;;;;;;7.03;2.45;;;;;;;13.27;65.35;100954.22;4977847;28;20049;-78
2022/10/10 10:14:01;;;;;;;5.70;2.88;;;;;;;13.26;65.11;100956.97;4982976;28;20440;-80
2022/10/10 10:16:31;;;;;;;6.55;2.63;;;;;;;13.29;64.91;100946.19;4994023;28;20068;-81
2022/10/10 10:18:59;;;;;;;8.82;2.63;;;;;;;13.29;64.72;100954.97;4992392;28;20086;-80
2022/10/10 10:21:28;;;;;;;12.35;3.28;;;;;;;13.36;64.43;100950.13;4986684;28;20152;-79
2022/10/10 10:24:01;;;;;;;11.50;3.10;;;;;;;13.36;64.10;100953.59;4994139;28;20137;-80
2022/10/10 10:26:43;;;;;;;6.10;2.50;;;;;;;13.39;64.54;100949.94;4979571;28;20535;-80
2022/10/10 10:29:29;;;;;;;7.22;2.58;;;;;;;13.35;64.07;100956.38;4992902;28;20137;-81
2022/10/10 10:32:12;;;;;;;7.05;2.33;;;;;;;13.40;64.40;100949.81;4987681;28;20065;-80
2022/10/10 10:34:48;;;;;;;5.65;2.50;;;;;;;13.49;64.22;100943.06;4993701;28;20114;-81
2022/10/10 10:37:25;;;;;;;8.85;2.83;;;;;;;13.62;64.38;100945.75;4954311;28;20057;-81
2022/10/10 10:40:03;;;;;;;7.13;2.50;;;;;;;13.84;63.83;100938.09;4980681;28;20408;-82
2022/10/10 10:42:36;;;;;;;6.78;2.33;;;;;;;13.99;63.04;100936.19;5006308;28;20072;-82
2022/10/10 10:45:33;;;;;;;12.43;3.05;;;;;;;14.10;62.67;100931.03;5003950;28;20449;-83
2022/10/10 10:48:35;;;;;;;6.53;2.83;;;;;;;14.21;61.49;100918.84;4991918;28;20057;-82
2022/10/10 10:51:19;;;;;;;4.93;2.28;;;;;;;14.32;61.13;100910.97;4995786;28;20522;-81
2022/10/10 10:53:54;;;;;;;7.35;3.00;;;;;;;14.30;61.12;100918.19;4965341;28;20050;-80
2022/10/10 10:56:27;;;;;;;7.25;2.55;;;;;;;14.32;61.24;100911.84;4995916;28;20055;-80
2022/10/10 10:59:00;;;;;;;7.05;2.55;;;;;;;14.34;61.26;100920.53;4973201;28;20042;-80
2022/10/10 11:02:02;;;;;;;7.10;3.08;;;;;;;14.39;61.10;100910.44;4990585;28;20061;-79
2022/10/10 11:04:54;;;;;;;7.10;2.88;;;;;;;14.59;60.51;100911.72;4952153;28;20054;-81
2022/10/10 11:08:17;;;;;;;8.80;2.47;;;;;;;14.83;59.29;100902.97;4983038;28;20050;-81
2022/10/10 11:11:03;;;;;;;5.57;2.40;;;;;;;15.01;59.06;100901.63;5001456;28;20654;-81
2022/10/10 11:13:46;;;;;;;10.55;2.72;;;;;;;15.30;58.77;100893.31;4983318;28;20065;-79
2022/10/10 11:16:31;;;;;;;7.80;2.65;;;;;;;15.51;58.43;100910.31;4983226;28;20043;-82
2022/10/10 11:19:27;;;;;;;12.43;2.50;;;;;;;15.69;57.38;100895.69;4972416;28;20158;-80
2022/10/10 11:22:08;;;;;;;7.05;2.70;;;;;;;15.92;57.28;100890.41;4984705;28;20104;-80
2022/10/10 11:24:44;;;;;;;6.28;2.78;;;;;;;16.08;56.62;100885.63;4965952;28;20056;-82
2022/10/10 11:27:33;;;;;;;4.55;2.17;;;;;;;16.35;57.09;100897.72;4966435;28;20038;-80
2022/10/10 11:30:15;;;;;;;5.43;2.20;;;;;;;16.56;55.35;100887.16;4971829;28;20069;-82
2022/10/10 11:32:48;;;;;;;5.82;2.75;;;;;;;16.46;54.93;100887.91;4987856;28;20041;-79
2022/10/10 11:35:24;;;;;;;7.43;2.53;;;;;;;16.54;55.02;100879.31;4991208;28;20046;-79
2022/10/10 11:38:15;;;;;;;6.07;2.40;;;;;;;16.62;54.41;100887.53;4988853;28;20057;-82
2022/10/10 11:41:16;;;;;;;9.02;3.00;;;;;;;16.55;54.82;100880.16;4964755;28;20057;-80
2022/10/10 11:43:59;;;;;;;6.05;3.00;;;;;;;16.88;54.25;100881.94;4989463;28;20064;-79
2022/10/10 11:46:35;;;;;;;5.38;2.45;;;;;;;17.18;54.57;100887.41;4972228;28;20061;-81
2022/10/10 11:49:38;;;;;;;10.85;2.78;;;;;;;17.56;53.51;100883.41;4974191;28;20053;-81
2022/10/10 11:52:33;;;;;;;4.20;2.20;;;;;;;17.91;53.22;100883.06;4988064;28;20184;-82
2022/10/10 11:55:09;;;;;;;6.13;2.65;;;;;;;18.17;52.37;100870.19;4970182;28;20054;-83
2022/10/10 11:58:13;;;;;;;9.35;3.03;;;;;;;18.44;52.44;100863.41;4988646;28;20054;-83
2022/10/10 12:00:47;;;;;;;8.40;3.08;;;;;;;18.88;51.13;100851.47;4987835;28;20061;-82
2022/10/10 12:03:14;;;;;;;5.90;2.50;;;;;;;19.15;51.19;100852.63;4968324;28;20042;-81
2022/10/10 12:05:49;;;;;;;6.95;2.40;;;;;;;19.31;49.06;100871.56;4975179;28;20481;-81